createdAt,value
2024-02-29T00:01:05.973Z,-1.30
2024-02-29T00:06:09.049Z,-1.28
2024-02-29T00:11:14.326Z,-1.37
2024-02-29T00:16:17.747Z,-1.46
2024-02-29T00:21:20.769Z,-1.28
2024-02-29T00:26:25.418Z,-1.41
2024-02-29T00:31:28.317Z,-1.43
2024-02-29T00:36:31.303Z,-1.71
2024-02-29T00:41:35.807Z,-1.67
2024-02-29T00:46:39.558Z,-1.40
2024-02-29T00:51:42.502Z,-1.50
2024-02-29T00:56:46.851Z,-1.71
2024-02-29T01:01:49.961Z,-1.57
2024-02-29T01:06:53.041Z,-1.74
2024-02-29T01:11:57.283Z,-1.76
2024-02-29T01:17:00.229Z,-1.72
2024-02-29T01:22:03.548Z,-1.70
2024-02-29T01:27:08.416Z,-1.55
2024-02-29T01:32:18.656Z,-1.60
2024-02-29T01:37:25.733Z,-1.67
2024-02-29T01:42:30.032Z,-1.51
2024-02-29T01:47:32.947Z,-1.75
2024-02-29T01:52:40.554Z,-1.50
2024-02-29T01:57:45.751Z,-1.51
2024-02-29T02:02:48.950Z,-1.64
2024-02-29T02:07:52.532Z,-1.78
2024-02-29T02:12:56.851Z,-1.95
2024-02-29T02:17:59.795Z,-1.87
2024-02-29T02:23:04.064Z,-1.82
2024-02-29T02:28:07.265Z,-1.95
2024-02-29T02:33:12.112Z,-1.90
2024-02-29T02:38:16.521Z,-2.00
2024-02-29T02:43:19.487Z,-1.96
2024-02-29T02:48:22.515Z,-2.02
2024-02-29T02:53:26.744Z,-1.89
2024-02-29T02:58:29.689Z,-2.13
2024-02-29T03:03:33.211Z,-2.04
2024-02-29T03:08:37.574Z,-2.10
2024-02-29T03:13:40.898Z,-2.11
2024-02-29T03:18:43.846Z,-2.14
2024-02-29T03:23:48.490Z,-2.09
2024-02-29T03:28:51.385Z,-2.27
2024-02-29T03:33:54.285Z,-2.20
2024-02-29T03:38:59.100Z,-2.39
2024-02-29T03:44:02.063Z,-2.18
2024-02-29T03:49:05.289Z,-2.42
2024-02-29T03:54:09.738Z,-2.24
2024-02-29T03:59:12.630Z,-2.33
2024-02-29T04:04:15.622Z,-2.30
2024-02-29T04:09:19.879Z,-2.35
2024-02-29T04:14:22.804Z,-2.33
2024-02-29T04:19:25.681Z,-2.37
2024-02-29T04:24:29.972Z,-2.50
2024-02-29T04:29:32.998Z,-2.50
2024-02-29T04:34:35.900Z,-2.57
2024-02-29T04:39:40.177Z,-2.59
2024-02-29T04:44:43.262Z,-2.44
2024-02-29T04:49:46.151Z,-2.69
2024-02-29T04:54:50.670Z,-2.78
2024-02-29T04:59:53.689Z,-2.58
2024-02-29T05:04:56.596Z,-2.87
2024-02-29T05:10:00.959Z,-2.78
2024-02-29T05:15:04.372Z,-2.63
2024-02-29T05:20:09.037Z,-2.67
2024-02-29T05:25:14.717Z,-2.74
2024-02-29T05:30:17.946Z,-2.75
2024-02-29T05:35:23.678Z,-2.68
2024-02-29T05:40:28.863Z,-2.64
2024-02-29T05:45:31.823Z,-2.71
2024-02-29T05:50:34.770Z,-2.73
2024-02-29T05:55:39.197Z,-2.72
2024-02-29T06:00:42.263Z,-2.89
2024-02-29T06:05:45.196Z,-2.67
2024-02-29T06:10:50.266Z,-2.64
2024-02-29T06:15:53.363Z,-2.71
2024-02-29T06:20:56.274Z,-2.72
2024-02-29T06:26:01.342Z,-2.45
2024-02-29T06:31:04.443Z,-2.13
2024-02-29T06:36:10.134Z,-2.02
2024-02-29T06:41:14.742Z,-1.89
2024-02-29T06:46:18.271Z,-1.54
2024-02-29T06:51:21.315Z,-1.78
2024-02-29T06:56:25.585Z,-1.35
2024-02-29T07:01:28.598Z,-0.76
2024-02-29T07:06:31.707Z,-0.30
2024-02-29T07:11:36.061Z,0.13
2024-02-29T07:16:39.750Z,0.21
2024-02-29T07:21:43.488Z,0.60
2024-02-29T07:26:47.827Z,0.92
2024-02-29T07:31:54.922Z,1.29
2024-02-29T07:36:58.100Z,1.47
2024-02-29T07:42:02.374Z,1.75
2024-02-29T07:47:05.560Z,2.03
2024-02-29T07:52:08.461Z,1.92
2024-02-29T07:57:13.002Z,2.46
2024-02-29T08:02:15.955Z,2.55
2024-02-29T08:07:19.267Z,2.87
2024-02-29T08:12:23.587Z,2.14
2024-02-29T08:17:28.270Z,2.62
2024-02-29T08:22:31.351Z,3.07
2024-02-29T08:27:36.613Z,3.32
2024-02-29T08:32:39.591Z,2.28
2024-02-29T08:37:43.825Z,3.82
2024-02-29T08:42:48.148Z,4.27
2024-02-29T08:47:51.340Z,3.45
2024-02-29T08:52:54.335Z,4.15
2024-02-29T08:57:59.432Z,4.98
2024-02-29T09:03:02.365Z,4.74
2024-02-29T09:08:05.563Z,4.45
2024-02-29T09:13:20.531Z,5.25
2024-02-29T09:18:32.808Z,5.69
2024-02-29T09:23:35.693Z,6.22
2024-02-29T09:28:39.969Z,6.65
2024-02-29T09:33:43.239Z,7.13
2024-02-29T09:38:46.316Z,7.14
2024-02-29T09:43:51.068Z,7.34
2024-02-29T09:48:54.425Z,7.28
2024-02-29T09:53:58.592Z,7.35
2024-02-29T09:59:04.053Z,7.52
2024-02-29T10:04:07.916Z,7.58
2024-02-29T10:09:11.153Z,7.01
2024-02-29T10:14:31.877Z,7.04
2024-02-29T10:19:34.893Z,6.54
2024-02-29T10:24:37.836Z,6.55
2024-02-29T10:29:43.001Z,6.78
2024-02-29T10:34:47.390Z,7.18
2024-02-29T10:39:51.055Z,6.87
2024-02-29T10:44:57.578Z,7.08
2024-02-29T10:50:05.940Z,7.31
2024-02-29T10:55:14.261Z,7.32
2024-02-29T11:00:18.774Z,7.49
2024-02-29T11:05:22.734Z,7.82
2024-02-29T11:10:26.098Z,7.84
2024-02-29T11:15:30.328Z,7.77
2024-02-29T11:20:35.027Z,8.13
2024-02-29T11:25:43.452Z,8.25
2024-02-29T11:30:52.603Z,8.13
2024-02-29T11:35:57.092Z,8.41
2024-02-29T11:41:00.001Z,8.29
2024-02-29T11:46:11.042Z,9.11
2024-02-29T11:51:13.969Z,9.49
2024-02-29T11:56:17.227Z,8.85
2024-02-29T12:01:24.770Z,9.35
2024-02-29T12:06:28.498Z,8.64
2024-02-29T12:11:33.670Z,9.03
2024-02-29T12:16:40.288Z,8.38
2024-02-29T12:21:44.623Z,8.12
2024-02-29T12:26:50.031Z,7.73
2024-02-29T12:31:54.385Z,7.99
2024-02-29T12:36:58.014Z,8.20
2024-02-29T12:42:01.319Z,7.93
2024-02-29T12:47:06.001Z,8.42
2024-02-29T12:52:08.973Z,7.91
2024-02-29T12:57:12.271Z,7.77
2024-02-29T13:02:17.292Z,7.75
2024-02-29T13:07:20.665Z,8.21
2024-02-29T13:12:23.683Z,8.11
2024-02-29T13:17:27.999Z,7.80
2024-02-29T13:22:30.909Z,7.98
2024-02-29T13:27:34.297Z,8.04
2024-02-29T13:32:38.573Z,8.26
2024-02-29T13:37:42.346Z,8.17
2024-02-29T13:42:45.847Z,8.25
2024-02-29T13:47:52.097Z,8.16
2024-02-29T13:52:55.314Z,8.36
2024-02-29T13:57:58.447Z,7.98
2024-02-29T14:03:02.689Z,8.18
2024-02-29T14:08:06.334Z,8.23
2024-02-29T14:13:09.268Z,8.25
2024-02-29T14:18:14.524Z,8.16
2024-02-29T14:23:17.666Z,8.02
2024-02-29T14:28:21.185Z,7.99
2024-02-29T14:33:25.513Z,8.12
2024-02-29T14:38:28.847Z,8.12
2024-02-29T14:43:31.797Z,8.42
2024-02-29T14:48:36.173Z,7.93
2024-02-29T14:53:39.033Z,8.22
2024-02-29T14:58:41.941Z,8.23
2024-02-29T15:03:46.239Z,8.00
2024-02-29T15:08:49.278Z,7.85
2024-02-29T15:13:52.251Z,8.15
2024-02-29T15:18:56.617Z,8.04
2024-02-29T15:23:59.553Z,7.91
2024-02-29T15:29:02.529Z,7.66
2024-02-29T15:34:06.823Z,7.67
2024-02-29T15:39:09.778Z,7.57
2024-02-29T15:44:12.699Z,7.54
2024-02-29T15:49:17.206Z,7.18
2024-02-29T15:54:20.157Z,7.24
2024-02-29T15:59:23.158Z,6.86
2024-02-29T16:04:27.577Z,7.06
2024-02-29T16:09:31.483Z,6.62
2024-02-29T16:14:34.473Z,6.77
2024-02-29T16:19:38.758Z,6.58
2024-02-29T16:24:41.800Z,6.51
2024-02-29T16:29:44.826Z,6.57
2024-02-29T16:34:49.067Z,6.51
2024-02-29T16:39:52.171Z,6.57
2024-02-29T16:44:55.942Z,6.46
2024-02-29T16:50:00.633Z,6.26
2024-02-29T16:55:03.606Z,6.34
2024-02-29T17:00:09.888Z,6.30
2024-02-29T17:05:14.614Z,6.34
2024-02-29T17:10:17.704Z,6.31
2024-02-29T17:15:20.797Z,6.51
2024-02-29T17:20:25.146Z,6.17
2024-02-29T17:25:28.190Z,6.24
2024-02-29T17:30:31.099Z,6.30
2024-02-29T17:35:36.852Z,6.15
2024-02-29T17:40:39.745Z,6.25
2024-02-29T17:45:43.065Z,6.30
2024-02-29T17:50:47.379Z,6.34
2024-02-29T17:55:50.308Z,6.04
2024-02-29T18:00:53.332Z,6.23
2024-02-29T18:05:57.657Z,6.08
2024-02-29T18:11:00.624Z,6.00
2024-02-29T18:16:03.617Z,5.77
2024-02-29T18:21:08.110Z,5.80
2024-02-29T18:26:12.931Z,5.85
2024-02-29T18:31:15.947Z,5.82
2024-02-29T18:36:20.232Z,5.79
2024-02-29T18:41:23.211Z,5.53
2024-02-29T18:46:26.123Z,5.58
2024-02-29T18:51:30.599Z,5.37
2024-02-29T18:56:33.524Z,5.40
2024-02-29T19:01:36.699Z,5.16
2024-02-29T19:06:41.152Z,5.25
2024-02-29T19:11:44.087Z,5.25
2024-02-29T19:16:47.136Z,5.09
2024-02-29T19:21:51.474Z,5.13
2024-02-29T19:26:54.671Z,5.09
2024-02-29T19:31:57.616Z,5.08
2024-02-29T19:37:01.956Z,5.09
2024-02-29T19:42:05.339Z,4.92
2024-02-29T19:47:08.461Z,4.78
2024-02-29T19:52:12.789Z,4.60
2024-02-29T19:57:15.732Z,4.64
2024-02-29T20:02:18.660Z,4.48
2024-02-29T20:07:23.374Z,4.53
2024-02-29T20:12:26.422Z,4.44
2024-02-29T20:17:29.288Z,4.27
2024-02-29T20:22:33.571Z,4.45
2024-02-29T20:27:37.249Z,4.46
2024-02-29T20:32:41.527Z,4.43
2024-02-29T20:37:46.435Z,4.13
2024-02-29T20:42:49.597Z,4.21
2024-02-29T20:47:52.593Z,4.07
2024-02-29T20:52:56.912Z,3.98
2024-02-29T20:57:59.870Z,4.04
2024-02-29T21:03:04.166Z,4.15
2024-02-29T21:08:08.700Z,3.97
2024-02-29T21:13:13.569Z,4.17
2024-02-29T21:18:17.212Z,4.62
2024-02-29T21:23:21.549Z,5.30
2024-02-29T21:28:24.455Z,5.43
2024-02-29T21:33:27.462Z,5.69
2024-02-29T21:38:31.827Z,6.16
2024-02-29T21:43:35.004Z,6.06
2024-02-29T21:48:37.986Z,5.87
2024-02-29T21:53:42.254Z,5.65
2024-02-29T21:58:45.282Z,5.53
2024-02-29T22:03:48.243Z,5.54
2024-02-29T22:08:52.736Z,5.62
2024-02-29T22:13:57.231Z,5.59
2024-02-29T22:19:00.186Z,5.64
2024-02-29T22:24:05.408Z,5.76
2024-02-29T22:29:08.332Z,5.82
2024-02-29T22:34:11.982Z,6.22
2024-02-29T22:39:16.305Z,6.63
2024-02-29T22:44:19.182Z,6.61
2024-02-29T22:49:22.259Z,6.96
2024-02-29T22:54:26.551Z,7.07
2024-02-29T22:59:29.498Z,7.13
2024-02-29T23:04:33.617Z,7.07
2024-02-29T23:09:37.920Z,7.07
2024-02-29T23:14:40.941Z,7.19
2024-02-29T23:19:43.923Z,7.17
2024-02-29T23:24:49.075Z,7.11
2024-02-29T23:29:52.002Z,7.13
2024-02-29T23:34:55.332Z,7.26
2024-02-29T23:39:59.661Z,7.11
2024-02-29T23:45:02.588Z,7.25
2024-02-29T23:50:06.801Z,7.13
2024-02-29T23:55:11.893Z,6.90
